createdAt,value
2023-01-17T00:00:23.256Z,827.36
2023-01-17T00:01:23.221Z,827.39
2023-01-17T00:02:23.253Z,827.37
2023-01-17T00:03:23.181Z,827.43
2023-01-17T00:04:30.702Z,827.45
2023-01-17T00:05:30.693Z,827.44
2023-01-17T00:06:23.156Z,827.53
2023-01-17T00:07:23.136Z,827.47
2023-01-17T00:08:23.127Z,827.45
2023-01-17T00:09:23.114Z,827.46
2023-01-17T00:10:23.130Z,827.47
2023-01-17T00:11:23.101Z,827.46
2023-01-17T00:12:23.096Z,827.46
2023-01-17T00:13:23.087Z,827.44
2023-01-17T00:14:23.065Z,827.46
2023-01-17T00:15:23.053Z,827.45
2023-01-17T00:16:23.167Z,827.54
2023-01-17T00:17:23.060Z,827.49
2023-01-17T00:18:23.044Z,827.50
2023-01-17T00:19:23.009Z,827.50
2023-01-17T00:20:23.006Z,827.50
2023-01-17T00:21:23.000Z,827.45
2023-01-17T00:22:22.999Z,827.47
2023-01-17T00:23:23.079Z,827.49
2023-01-17T00:24:22.977Z,827.43
2023-01-17T00:25:22.954Z,827.45
2023-01-17T00:26:22.938Z,827.46
2023-01-17T00:27:22.922Z,827.45
2023-01-17T00:28:22.926Z,827.49
2023-01-17T00:29:23.023Z,827.45
2023-01-17T00:30:22.908Z,827.44
2023-01-17T00:31:22.949Z,827.42
2023-01-17T00:32:22.878Z,827.36
2023-01-17T00:33:22.893Z,827.35
2023-01-17T00:34:22.853Z,827.32
2023-01-17T00:35:22.856Z,827.36
2023-01-17T00:36:22.845Z,827.31
2023-01-17T00:37:22.832Z,827.35
2023-01-17T00:38:22.826Z,827.31
2023-01-17T00:39:22.803Z,827.36
2023-01-17T00:40:22.802Z,827.36
2023-01-17T00:41:22.800Z,827.40
2023-01-17T00:42:22.796Z,827.36
2023-01-17T00:43:22.779Z,827.36
2023-01-17T00:44:22.852Z,827.36
2023-01-17T00:45:22.739Z,827.40
2023-01-17T00:46:22.775Z,827.41
2023-01-17T00:47:22.716Z,827.37
2023-01-17T00:48:22.717Z,827.41
2023-01-17T00:49:22.725Z,827.43
2023-01-17T00:50:22.699Z,827.50
2023-01-17T00:51:22.680Z,827.49
2023-01-17T00:52:22.667Z,827.58
2023-01-17T00:53:22.662Z,827.54
2023-01-17T00:54:22.648Z,827.52
2023-01-17T00:55:22.656Z,827.57
2023-01-17T00:56:22.629Z,827.57
2023-01-17T00:57:22.613Z,827.56
2023-01-17T00:58:22.608Z,827.57
2023-01-17T00:59:22.603Z,827.53
2023-01-17T01:00:22.584Z,827.53
2023-01-17T01:01:22.736Z,827.51
2023-01-17T01:02:22.672Z,827.59
2023-01-17T01:03:22.569Z,827.52
2023-01-17T01:04:22.547Z,827.48
2023-01-17T01:05:22.561Z,827.55
2023-01-17T01:06:22.522Z,827.50
2023-01-17T01:07:22.528Z,827.49
2023-01-17T01:08:22.509Z,827.45
2023-01-17T01:09:22.486Z,827.46
2023-01-17T01:10:22.479Z,827.49
2023-01-17T01:11:22.469Z,827.58
2023-01-17T01:12:22.463Z,827.56
2023-01-17T01:13:22.464Z,827.56
2023-01-17T01:14:22.438Z,827.53
2023-01-17T01:15:22.437Z,827.56
2023-01-17T01:16:22.445Z,827.54
2023-01-17T01:17:22.405Z,827.52
2023-01-17T01:18:22.391Z,827.57
2023-01-17T01:19:22.398Z,827.52
2023-01-17T01:20:22.378Z,827.56
2023-01-17T01:22:32.763Z,827.57
2023-01-17T01:23:32.719Z,827.58
2023-01-17T01:24:32.687Z,827.54
2023-01-17T01:25:32.701Z,827.55
2023-01-17T01:26:32.666Z,827.53
2023-01-17T01:27:32.669Z,827.55
2023-01-17T01:28:32.650Z,827.52
2023-01-17T01:29:32.650Z,827.56
2023-01-17T01:30:32.634Z,827.54
2023-01-17T01:31:32.644Z,827.58
2023-01-17T01:32:32.601Z,827.63
2023-01-17T01:33:32.596Z,827.62
2023-01-17T01:34:32.580Z,827.62
2023-01-17T01:35:32.598Z,827.65
2023-01-17T01:36:32.572Z,827.66
2023-01-17T01:37:32.557Z,827.65
2023-01-17T01:38:32.557Z,827.66
2023-01-17T01:39:32.536Z,827.61
2023-01-17T01:40:32.520Z,827.61
2023-01-17T01:41:32.537Z,827.61
2023-01-17T01:42:32.496Z,827.63
2023-01-17T01:43:32.492Z,827.60
2023-01-17T01:44:32.479Z,827.58
2023-01-17T01:45:32.545Z,827.59
2023-01-17T01:46:32.464Z,827.60
2023-01-17T01:47:32.470Z,827.65
2023-01-17T01:48:32.447Z,827.63
2023-01-17T01:49:32.440Z,827.63
2023-01-17T01:50:32.417Z,827.64
2023-01-17T01:51:32.404Z,827.64
2023-01-17T01:52:32.403Z,827.71
2023-01-17T01:53:32.396Z,827.70
2023-01-17T01:54:32.399Z,827.66
2023-01-17T01:55:32.369Z,827.66
2023-01-17T01:56:32.351Z,827.68
2023-01-17T01:57:32.339Z,827.69
2023-01-17T01:58:32.329Z,827.68
2023-01-17T01:59:32.339Z,827.69
2023-01-17T02:00:32.305Z,827.66
2023-01-17T02:01:32.527Z,827.63
2023-01-17T02:02:32.288Z,827.58
2023-01-17T02:03:32.311Z,827.62
2023-01-17T02:04:32.293Z,827.62
2023-01-17T02:05:32.292Z,827.62
2023-01-17T02:06:32.242Z,827.58
2023-01-17T02:07:32.234Z,827.57
2023-01-17T02:08:32.225Z,827.57
2023-01-17T02:09:32.213Z,827.54
2023-01-17T02:10:32.248Z,827.51
2023-01-17T02:11:32.191Z,827.56
2023-01-17T02:12:32.179Z,827.53
2023-01-17T02:13:32.172Z,827.52
2023-01-17T02:14:32.181Z,827.48
2023-01-17T02:15:32.149Z,827.50
2023-01-17T02:16:32.218Z,827.47
2023-01-17T02:17:32.128Z,827.46
2023-01-17T02:18:32.114Z,827.38
2023-01-17T02:19:32.118Z,827.41
2023-01-17T02:20:32.093Z,827.35
2023-01-17T02:21:32.090Z,827.34
2023-01-17T02:22:32.094Z,827.32
2023-01-17T02:23:32.065Z,827.35
2023-01-17T02:24:32.052Z,827.36
2023-01-17T02:25:32.046Z,827.34
2023-01-17T02:26:32.074Z,827.32
2023-01-17T02:27:32.028Z,827.33
2023-01-17T02:28:32.043Z,827.31
2023-01-17T02:29:32.006Z,827.33
2023-01-17T02:30:31.989Z,827.36
2023-01-17T02:31:32.014Z,827.31
2023-01-17T02:32:32.077Z,827.32
2023-01-17T02:33:31.955Z,827.32
2023-01-17T02:34:31.957Z,827.33
2023-01-17T02:35:31.936Z,827.31
2023-01-17T02:36:31.927Z,827.25
2023-01-17T02:37:31.913Z,827.24
2023-01-17T02:38:31.921Z,827.20
2023-01-17T02:39:31.893Z,827.17
2023-01-17T02:40:31.891Z,827.13
2023-01-17T02:41:31.871Z,827.08
2023-01-17T02:42:31.888Z,827.09
2023-01-17T02:43:31.857Z,827.09
2023-01-17T02:44:31.855Z,827.10
2023-01-17T02:45:31.842Z,827.09
2023-01-17T02:46:31.848Z,827.04
2023-01-17T02:47:31.808Z,827.07
2023-01-17T02:48:31.798Z,827.05
2023-01-17T02:49:31.785Z,827.03
2023-01-17T02:50:31.777Z,827.02
2023-01-17T02:51:31.763Z,827.05
2023-01-17T02:52:31.787Z,827.00
2023-01-17T02:53:31.756Z,827.00
2023-01-17T02:54:31.739Z,827.00
2023-01-17T02:55:31.722Z,826.96
2023-01-17T02:56:32.706Z,826.97
2023-01-17T02:57:31.713Z,826.95
2023-01-17T02:58:31.713Z,826.93
2023-01-17T02:59:31.683Z,826.97
2023-01-17T03:00:31.669Z,826.95
2023-01-17T03:01:31.791Z,826.92
2023-01-17T03:02:31.725Z,826.94
2023-01-17T03:03:31.643Z,826.93
2023-01-17T03:04:31.636Z,826.95
2023-01-17T03:05:31.622Z,826.95
2023-01-17T03:06:31.606Z,826.89
2023-01-17T03:07:31.613Z,826.89
2023-01-17T03:08:31.594Z,826.88
2023-01-17T03:09:31.571Z,826.89
2023-01-17T03:10:31.578Z,826.88
2023-01-17T03:11:31.553Z,826.90
2023-01-17T03:12:31.552Z,826.92
2023-01-17T03:13:31.533Z,826.92
2023-01-17T03:14:31.570Z,826.93
2023-01-17T03:15:31.506Z,826.91
2023-01-17T03:16:31.585Z,826.90
2023-01-17T03:17:31.495Z,826.86
2023-01-17T03:18:31.477Z,826.91
2023-01-17T03:19:31.495Z,826.89
2023-01-17T03:20:31.472Z,826.83
2023-01-17T03:21:31.444Z,826.83
2023-01-17T03:22:31.458Z,826.82
2023-01-17T03:23:31.428Z,826.82
2023-01-17T03:24:31.417Z,826.83
2023-01-17T03:25:31.397Z,826.82
2023-01-17T03:26:31.391Z,826.80
2023-01-17T03:27:31.377Z,826.82
2023-01-17T03:28:31.392Z,826.78
2023-01-17T03:29:31.356Z,826.78
2023-01-17T03:30:31.441Z,826.79
2023-01-17T03:31:31.333Z,826.77
2023-01-17T03:32:31.329Z,826.74
2023-01-17T03:33:31.315Z,826.73
2023-01-17T03:34:31.331Z,826.75
2023-01-17T03:35:31.293Z,826.70
2023-01-17T03:36:31.299Z,826.70
2023-01-17T03:37:31.273Z,826.76
2023-01-17T03:38:31.263Z,826.71
2023-01-17T03:39:31.261Z,826.72
2023-01-17T03:40:31.252Z,826.69
2023-01-17T03:41:31.246Z,826.72
2023-01-17T03:42:31.219Z,826.71
2023-01-17T03:43:31.204Z,826.73
2023-01-17T03:44:31.210Z,826.73
2023-01-17T03:45:31.261Z,826.72
2023-01-17T03:46:31.204Z,826.72
2023-01-17T03:47:31.173Z,826.76
2023-01-17T03:48:31.161Z,826.67
2023-01-17T03:49:31.141Z,826.70
2023-01-17T03:50:31.140Z,826.69
2023-01-17T03:51:31.122Z,826.69
2023-01-17T03:52:31.149Z,826.68
2023-01-17T03:53:31.103Z,826.61
2023-01-17T03:54:31.091Z,826.65
2023-01-17T03:55:31.082Z,826.63
2023-01-17T03:56:31.077Z,826.63
2023-01-17T03:57:31.055Z,826.61
2023-01-17T03:58:31.073Z,826.59
2023-01-17T03:59:31.035Z,826.60
2023-01-17T04:00:31.027Z,826.65
2023-01-17T04:01:31.165Z,826.58
2023-01-17T04:02:31.071Z,826.57
2023-01-17T04:03:31.001Z,826.55
2023-01-17T04:04:30.998Z,826.50
2023-01-17T04:05:30.971Z,826.54
2023-01-17T04:06:30.976Z,826.42
2023-01-17T04:07:30.960Z,826.40
2023-01-17T04:08:30.947Z,826.40
2023-01-17T04:09:30.928Z,826.38
2023-01-17T04:10:30.936Z,826.34
2023-01-17T04:11:30.927Z,826.30
2023-01-17T04:12:30.922Z,826.30
2023-01-17T04:13:30.888Z,826.24
2023-01-17T04:14:30.884Z,826.26
2023-01-17T04:15:30.876Z,826.29
2023-01-17T04:16:30.914Z,826.24
2023-01-17T04:17:30.847Z,826.23
2023-01-17T04:18:30.883Z,826.24
2023-01-17T04:19:30.824Z,826.23
2023-01-17T04:20:30.816Z,826.21
2023-01-17T04:21:30.805Z,826.22
2023-01-17T04:22:30.807Z,826.26
2023-01-17T04:23:30.782Z,826.25
2023-01-17T04:24:30.783Z,826.27
2023-01-17T04:25:30.812Z,826.29
2023-01-17T04:26:30.756Z,826.27
2023-01-17T04:27:30.739Z,826.31
2023-01-17T04:28:30.747Z,826.32
2023-01-17T04:29:30.733Z,826.34
2023-01-17T04:30:30.718Z,826.37
2023-01-17T04:31:30.775Z,826.37
2023-01-17T04:32:30.692Z,826.45
2023-01-17T04:33:30.679Z,826.42
2023-01-17T04:34:30.697Z,826.44
2023-01-17T04:35:30.680Z,826.46
2023-01-17T04:36:30.651Z,826.47
2023-01-17T04:37:30.636Z,826.49
2023-01-17T04:38:30.633Z,826.51
2023-01-17T04:39:30.619Z,826.48
2023-01-17T04:40:30.626Z,826.46
2023-01-17T04:41:30.611Z,826.55
2023-01-17T04:42:30.591Z,826.53
2023-01-17T04:43:30.596Z,826.52
2023-01-17T04:44:30.565Z,826.52
2023-01-17T04:45:30.553Z,826.47
2023-01-17T04:46:30.569Z,826.50
2023-01-17T04:47:30.544Z,826.50
2023-01-17T04:48:30.530Z,826.47
2023-01-17T04:49:30.513Z,826.50
2023-01-17T04:50:30.532Z,826.50
2023-01-17T04:51:30.491Z,826.47
2023-01-17T04:52:30.497Z,826.46
2023-01-17T04:53:30.487Z,826.46
2023-01-17T04:54:30.469Z,826.40
2023-01-17T04:55:30.450Z,826.40
2023-01-17T04:56:30.450Z,826.36
2023-01-17T04:57:30.429Z,826.35
2023-01-17T04:58:30.445Z,826.31
2023-01-17T04:59:30.420Z,826.29
2023-01-17T05:00:30.402Z,826.31
2023-01-17T05:01:30.572Z,826.26
2023-01-17T05:02:30.387Z,826.31
2023-01-17T05:03:30.378Z,826.28
2023-01-17T05:04:30.372Z,826.24
2023-01-17T05:05:30.345Z,826.26
2023-01-17T05:06:30.368Z,826.28
2023-01-17T05:07:30.327Z,826.28
2023-01-17T05:08:30.334Z,826.25
2023-01-17T05:09:30.413Z,826.26
2023-01-17T05:10:30.315Z,826.23
2023-01-17T05:11:30.289Z,826.19
2023-01-17T05:12:30.279Z,826.17
2023-01-17T05:13:30.262Z,826.11
2023-01-17T05:14:30.257Z,826.14
2023-01-17T05:15:30.274Z,826.14
2023-01-17T05:16:30.250Z,826.11
2023-01-17T05:17:30.223Z,826.08
2023-01-17T05:18:30.220Z,826.03
2023-01-17T05:19:30.203Z,826.03
2023-01-17T05:20:30.190Z,825.95
2023-01-17T05:21:30.191Z,825.95
2023-01-17T05:22:30.202Z,825.85
2023-01-17T05:23:30.157Z,825.83
2023-01-17T05:24:30.163Z,825.73
2023-01-17T05:25:30.152Z,825.65
2023-01-17T05:26:30.144Z,825.58
2023-01-17T05:27:30.117Z,825.45
2023-01-17T05:28:30.121Z,825.43
2023-01-17T05:29:30.097Z,825.37
2023-01-17T05:30:30.096Z,825.37
2023-01-17T05:31:30.074Z,825.48
2023-01-17T05:32:30.082Z,825.47
2023-01-17T05:33:30.058Z,825.49
2023-01-17T05:34:30.061Z,825.53
2023-01-17T05:35:30.037Z,825.49
2023-01-17T05:36:30.032Z,825.52
2023-01-17T05:37:30.031Z,825.47
2023-01-17T05:38:30.031Z,825.55
2023-01-17T05:39:29.993Z,825.54
2023-01-17T05:40:30.010Z,825.56
2023-01-17T05:41:29.977Z,825.57
2023-01-17T05:42:29.971Z,825.48
2023-01-17T05:43:29.967Z,825.54
2023-01-17T05:44:29.944Z,825.52
2023-01-17T05:45:29.926Z,825.54
2023-01-17T05:46:29.961Z,825.51
2023-01-17T05:47:29.911Z,825.50
2023-01-17T05:48:29.918Z,825.54
2023-01-17T05:49:29.888Z,825.48
2023-01-17T05:50:29.898Z,825.43
2023-01-17T05:51:29.869Z,825.41
2023-01-17T05:52:29.977Z,825.38
2023-01-17T05:53:29.847Z,825.38
2023-01-17T05:54:29.862Z,825.37
2023-01-17T05:55:29.824Z,825.43
2023-01-17T05:56:29.820Z,825.41
2023-01-17T05:57:29.805Z,825.46
2023-01-17T05:58:29.818Z,825.47
2023-01-17T05:59:37.066Z,825.47
2023-01-17T06:00:30.788Z,825.49
2023-01-17T06:01:29.764Z,825.46
2023-01-17T06:02:29.832Z,825.46
2023-01-17T06:03:29.768Z,825.44
2023-01-17T06:04:29.765Z,825.46
2023-01-17T06:05:29.735Z,825.46
2023-01-17T06:06:29.718Z,825.51
2023-01-17T06:07:29.702Z,825.52
2023-01-17T06:08:29.697Z,825.55
2023-01-17T06:09:29.784Z,825.62
2023-01-17T06:10:29.700Z,825.58
2023-01-17T06:11:29.661Z,825.61
2023-01-17T06:12:29.653Z,825.65
2023-01-17T06:13:29.654Z,825.65
2023-01-17T06:14:29.629Z,825.72
2023-01-17T06:15:29.630Z,825.73
2023-01-17T06:16:29.632Z,825.74
2023-01-17T06:17:29.595Z,825.69
2023-01-17T06:18:29.605Z,825.77
2023-01-17T06:19:29.584Z,825.77
2023-01-17T06:20:29.568Z,825.79
2023-01-17T06:21:29.573Z,825.81
2023-01-17T06:22:37.597Z,825.80
2023-01-17T06:23:37.085Z,825.84
2023-01-17T06:24:37.498Z,825.85
2023-01-17T06:25:37.065Z,825.82
2023-01-17T06:26:37.058Z,825.82
2023-01-17T06:27:37.025Z,825.82
2023-01-17T06:28:37.016Z,825.85
2023-01-17T06:29:36.998Z,825.85
2023-01-17T06:30:29.568Z,825.95
2023-01-17T06:31:29.491Z,825.90
2023-01-17T06:32:29.446Z,825.93
2023-01-17T06:33:29.445Z,825.91
2023-01-17T06:34:29.437Z,825.91
2023-01-17T06:35:29.415Z,825.92
2023-01-17T06:36:29.421Z,825.92
2023-01-17T06:37:29.404Z,825.97
2023-01-17T06:38:29.375Z,826.00
2023-01-17T06:39:29.384Z,826.03
2023-01-17T06:40:29.357Z,825.99
2023-01-17T06:41:29.365Z,825.99
2023-01-17T06:42:29.344Z,825.96
2023-01-17T06:43:29.333Z,825.91
2023-01-17T06:44:29.321Z,825.95
2023-01-17T06:45:29.411Z,825.89
2023-01-17T06:46:29.383Z,825.90
2023-01-17T06:47:29.282Z,825.91
2023-01-17T06:48:29.290Z,825.93
2023-01-17T06:49:29.262Z,825.85
2023-01-17T06:50:29.251Z,825.83
2023-01-17T06:51:29.257Z,825.87
2023-01-17T06:52:29.233Z,825.78
2023-01-17T06:53:29.225Z,825.81
2023-01-17T06:54:29.225Z,825.78
2023-01-17T06:55:29.207Z,825.78
2023-01-17T06:56:29.185Z,825.71
2023-01-17T06:57:29.218Z,825.70
2023-01-17T06:58:29.166Z,825.68
2023-01-17T06:59:29.176Z,825.67
2023-01-17T07:00:29.422Z,825.66
2023-01-17T07:01:29.332Z,825.63
2023-01-17T07:02:29.124Z,825.62
2023-01-17T07:03:29.243Z,825.60
2023-01-17T07:04:29.103Z,825.60
2023-01-17T07:05:29.106Z,825.61
2023-01-17T07:06:29.086Z,825.63
2023-01-17T07:07:29.083Z,825.63
2023-01-17T07:08:29.061Z,825.68
2023-01-17T07:09:29.058Z,825.69
2023-01-17T07:10:29.123Z,825.66
2023-01-17T07:11:29.056Z,825.65
2023-01-17T07:12:29.037Z,825.65
2023-01-17T07:13:29.035Z,825.69
2023-01-17T07:14:29.003Z,825.66
2023-01-17T07:15:28.993Z,825.67
2023-01-17T07:16:29.050Z,825.58
2023-01-17T07:17:28.984Z,825.63
2023-01-17T07:18:28.967Z,825.59
2023-01-17T07:19:28.951Z,825.58
2023-01-17T07:20:28.958Z,825.60
2023-01-17T07:21:28.933Z,825.60
2023-01-17T07:22:28.923Z,825.62
2023-01-17T07:23:28.917Z,825.58
2023-01-17T07:24:28.907Z,825.52
2023-01-17T07:25:28.903Z,825.53
2023-01-17T07:26:28.873Z,825.50
2023-01-17T07:27:28.885Z,825.53
2023-01-17T07:28:28.868Z,825.60
2023-01-17T07:29:28.869Z,825.59
2023-01-17T07:30:28.840Z,825.58
2023-01-17T07:31:28.858Z,825.61
2023-01-17T07:32:28.814Z,825.62
2023-01-17T07:33:28.818Z,825.59
2023-01-17T07:34:28.808Z,825.57
2023-01-17T07:35:28.794Z,825.59
2023-01-17T07:36:28.781Z,825.58
2023-01-17T07:37:28.762Z,825.53
2023-01-17T07:38:28.778Z,825.56
2023-01-17T07:39:28.843Z,825.56
2023-01-17T07:40:28.728Z,825.58
2023-01-17T07:41:28.720Z,825.52
2023-01-17T07:42:28.721Z,825.54
2023-01-17T07:43:28.698Z,825.54
2023-01-17T07:44:28.684Z,825.48
2023-01-17T07:45:28.708Z,825.53
2023-01-17T07:46:28.712Z,825.48
2023-01-17T07:47:28.658Z,825.48
2023-01-17T07:48:28.661Z,825.53
2023-01-17T07:49:28.634Z,825.54
2023-01-17T07:50:28.620Z,825.48
2023-01-17T07:51:28.615Z,825.48
2023-01-17T07:52:28.611Z,825.49
2023-01-17T07:53:28.597Z,825.47
2023-01-17T07:54:28.593Z,825.46
2023-01-17T07:55:28.586Z,825.47
2023-01-17T07:56:28.568Z,825.49
2023-01-17T07:57:28.562Z,825.44
2023-01-17T07:58:28.534Z,825.53
2023-01-17T07:59:28.550Z,825.47
2023-01-17T08:00:28.526Z,825.50
2023-01-17T08:01:28.680Z,825.51
2023-01-17T08:02:28.493Z,825.45
2023-01-17T08:03:28.510Z,825.49
2023-01-17T08:04:28.470Z,825.46
2023-01-17T08:05:28.463Z,825.40
2023-01-17T08:06:28.464Z,825.35
2023-01-17T08:07:28.547Z,825.34
2023-01-17T08:08:28.426Z,825.26
2023-01-17T08:09:28.428Z,825.23
2023-01-17T08:10:28.404Z,825.21
2023-01-17T08:11:28.400Z,825.22
2023-01-17T08:12:28.399Z,825.21
2023-01-17T08:13:29.860Z,825.14
2023-01-17T08:14:28.364Z,825.21
2023-01-17T08:15:28.356Z,825.18
2023-01-17T08:16:28.369Z,825.19
2023-01-17T08:17:28.370Z,825.12
2023-01-17T08:18:28.333Z,825.11
2023-01-17T08:19:28.318Z,825.07
2023-01-17T08:20:28.412Z,825.02
2023-01-17T08:21:28.293Z,825.02
2023-01-17T08:22:28.290Z,825.00
2023-01-17T08:23:28.282Z,825.02
2023-01-17T08:24:28.271Z,825.00
2023-01-17T08:25:28.281Z,824.94
2023-01-17T08:26:28.238Z,825.00
2023-01-17T08:27:28.229Z,824.99
2023-01-17T08:28:28.222Z,825.00
2023-01-17T08:29:28.207Z,824.96
2023-01-17T08:30:28.194Z,825.00
2023-01-17T08:31:28.285Z,825.04
2023-01-17T08:32:28.169Z,825.01
2023-01-17T08:33:28.204Z,825.05
2023-01-17T08:34:28.161Z,825.04
2023-01-17T08:35:28.149Z,825.06
2023-01-17T08:36:28.128Z,824.93
2023-01-17T08:37:28.140Z,824.94
2023-01-17T08:38:28.104Z,824.88
2023-01-17T08:39:28.116Z,824.89
2023-01-17T08:40:28.083Z,824.79
2023-01-17T08:41:28.078Z,824.82
2023-01-17T08:42:28.080Z,824.85
2023-01-17T08:43:28.079Z,824.86
2023-01-17T08:44:28.042Z,824.83
2023-01-17T08:45:28.110Z,824.86
2023-01-17T08:46:28.039Z,824.81
2023-01-17T08:47:28.009Z,824.76
2023-01-17T08:48:27.997Z,824.75
2023-01-17T08:49:28.043Z,824.71
2023-01-17T08:50:27.978Z,824.58
2023-01-17T08:51:27.978Z,824.52
2023-01-17T08:52:27.954Z,824.45
2023-01-17T08:53:27.957Z,824.41
2023-01-17T08:54:27.941Z,824.27
2023-01-17T08:55:27.972Z,824.25
2023-01-17T08:56:27.971Z,824.21
2023-01-17T08:57:27.902Z,824.17
2023-01-17T08:58:29.774Z,824.21
2023-01-17T08:59:27.893Z,824.14
2023-01-17T09:00:27.872Z,824.08
2023-01-17T09:01:28.134Z,824.07
2023-01-17T09:02:27.860Z,824.06
2023-01-17T09:03:27.841Z,824.05
2023-01-17T09:04:27.915Z,824.08
2023-01-17T09:05:27.940Z,824.12
2023-01-17T09:06:27.808Z,824.16
2023-01-17T09:07:27.820Z,824.12
2023-01-17T09:08:27.784Z,824.07
2023-01-17T09:09:27.778Z,824.04
2023-01-17T09:10:27.764Z,824.05
2023-01-17T09:11:27.767Z,823.98
2023-01-17T09:12:27.762Z,823.89
2023-01-17T09:13:27.836Z,823.84
2023-01-17T09:14:27.734Z,823.90
2023-01-17T09:15:27.720Z,823.87
2023-01-17T09:16:27.774Z,823.87
2023-01-17T09:17:27.693Z,823.89
2023-01-17T09:18:27.693Z,823.89
2023-01-17T09:19:27.691Z,823.93
2023-01-17T09:20:27.669Z,823.99
2023-01-17T09:21:27.685Z,823.98
2023-01-17T09:22:27.640Z,824.03
2023-01-17T09:23:27.643Z,823.99
2023-01-17T09:24:27.613Z,824.02
2023-01-17T09:25:27.624Z,824.01
2023-01-17T09:26:27.633Z,824.02
2023-01-17T09:27:27.587Z,824.04
2023-01-17T09:28:27.572Z,824.02
2023-01-17T09:29:27.576Z,824.03
2023-01-17T09:30:27.605Z,824.06
2023-01-17T09:31:27.545Z,824.06
2023-01-17T09:32:27.543Z,824.01
2023-01-17T09:33:27.521Z,824.04
2023-01-17T09:34:27.511Z,824.03
2023-01-17T09:35:27.502Z,824.02
2023-01-17T09:36:27.505Z,824.02
2023-01-17T09:37:27.516Z,824.04
2023-01-17T09:38:27.478Z,824.00
2023-01-17T09:39:27.458Z,824.00
2023-01-17T09:40:27.456Z,824.05
2023-01-17T09:41:27.438Z,824.03
2023-01-17T09:42:27.435Z,824.02
2023-01-17T09:43:27.417Z,824.03
2023-01-17T09:44:27.413Z,824.04
2023-01-17T09:45:27.404Z,824.05
2023-01-17T09:46:27.382Z,824.07
2023-01-17T09:47:27.468Z,824.10
2023-01-17T09:48:27.370Z,824.12
2023-01-17T09:49:27.357Z,824.13
2023-01-17T09:50:27.342Z,824.13
2023-01-17T09:51:27.343Z,824.12
2023-01-17T09:52:27.316Z,824.06
2023-01-17T09:53:27.329Z,824.11
2023-01-17T09:54:27.316Z,824.08
2023-01-17T09:55:27.305Z,824.10
2023-01-17T09:56:27.276Z,824.11
2023-01-17T09:57:27.280Z,824.18
2023-01-17T09:58:27.255Z,824.11
2023-01-17T09:59:33.049Z,824.09
2023-01-17T10:00:28.245Z,824.10
2023-01-17T10:01:27.404Z,824.05
2023-01-17T10:02:27.406Z,824.04
2023-01-17T10:03:27.314Z,824.10
2023-01-17T10:04:27.193Z,824.09
2023-01-17T10:05:27.182Z,824.06
2023-01-17T10:06:27.179Z,824.06
2023-01-17T10:07:27.166Z,824.04
2023-01-17T10:08:27.150Z,824.05
2023-01-17T10:09:27.163Z,824.00
2023-01-17T10:10:27.126Z,823.96
2023-01-17T10:11:27.116Z,823.95
2023-01-17T10:12:27.113Z,823.94
2023-01-17T10:13:27.102Z,823.91
2023-01-17T10:14:27.097Z,823.94
2023-01-17T10:15:27.086Z,823.94
2023-01-17T10:16:27.121Z,823.90
2023-01-17T10:17:27.070Z,823.91
2023-01-17T10:18:30.410Z,823.90
2023-01-17T10:19:27.047Z,823.89
2023-01-17T10:20:27.019Z,823.91
2023-01-17T10:21:27.033Z,823.90
2023-01-17T10:22:27.008Z,823.89
2023-01-17T10:23:26.990Z,823.90
2023-01-17T10:24:26.976Z,823.87
2023-01-17T10:25:27.006Z,823.94
2023-01-17T10:26:26.971Z,823.91
2023-01-17T10:27:26.958Z,823.88
2023-01-17T10:28:26.935Z,823.92
2023-01-17T10:29:26.939Z,823.90
2023-01-17T10:30:26.912Z,823.92
2023-01-17T10:31:26.907Z,823.86
2023-01-17T10:32:26.892Z,823.91
2023-01-17T10:33:26.897Z,823.86
2023-01-17T10:34:26.871Z,823.86
2023-01-17T10:35:26.881Z,823.90
2023-01-17T10:36:26.847Z,823.88
2023-01-17T10:37:26.840Z,823.90
2023-01-17T10:38:26.827Z,823.87
2023-01-17T10:39:26.834Z,823.83
2023-01-17T10:40:26.807Z,823.81
2023-01-17T10:41:26.844Z,823.78
2023-01-17T10:42:26.783Z,823.80
2023-01-17T10:43:26.781Z,823.75
2023-01-17T10:44:26.765Z,823.78
2023-01-17T10:45:26.759Z,823.75
2023-01-17T10:46:26.803Z,823.71
2023-01-17T10:47:26.839Z,823.74
2023-01-17T10:48:26.721Z,823.75
2023-01-17T10:49:26.709Z,823.77
2023-01-17T10:50:26.701Z,823.80
2023-01-17T10:51:26.710Z,823.79
2023-01-17T10:52:26.680Z,823.84
2023-01-17T10:53:26.679Z,823.87
2023-01-17T10:54:26.671Z,823.90
2023-01-17T10:55:26.646Z,823.92
2023-01-17T10:56:26.638Z,823.91
2023-01-17T10:57:26.645Z,823.89
2023-01-17T10:58:26.616Z,823.85
2023-01-17T10:59:26.614Z,823.81
2023-01-17T11:00:26.594Z,823.72
2023-01-17T11:01:26.688Z,823.72
2023-01-17T11:02:26.677Z,823.72
2023-01-17T11:03:26.571Z,823.76
2023-01-17T11:04:26.564Z,823.73
2023-01-17T11:05:26.560Z,823.71
2023-01-17T11:06:26.529Z,823.78
2023-01-17T11:07:26.516Z,823.75
2023-01-17T11:08:26.782Z,823.73
2023-01-17T11:09:26.494Z,823.71
2023-01-17T11:10:26.877Z,823.74
2023-01-17T11:11:26.473Z,823.67
2023-01-17T11:12:26.467Z,823.66
2023-01-17T11:13:26.491Z,823.69
2023-01-17T11:14:26.451Z,823.65
2023-01-17T11:15:26.484Z,823.72
2023-01-17T11:16:27.617Z,823.64
2023-01-17T11:17:26.413Z,823.63
2023-01-17T11:18:26.405Z,823.57
2023-01-17T11:19:26.386Z,823.55
2023-01-17T11:20:26.474Z,823.55
2023-01-17T11:21:26.369Z,823.56
2023-01-17T11:22:26.360Z,823.58
2023-01-17T11:23:26.348Z,823.54
2023-01-17T11:24:26.342Z,823.53
2023-01-17T11:25:26.323Z,823.49
2023-01-17T11:26:26.333Z,823.45
2023-01-17T11:27:26.301Z,823.46
2023-01-17T11:28:26.323Z,823.51
2023-01-17T11:29:26.325Z,823.53
2023-01-17T11:30:26.270Z,823.50
2023-01-17T11:31:26.406Z,823.54
2023-01-17T11:32:26.266Z,823.57
2023-01-17T11:33:26.235Z,823.57
2023-01-17T11:34:26.240Z,823.59
2023-01-17T11:35:26.215Z,823.55
2023-01-17T11:36:26.206Z,823.54
2023-01-17T11:37:26.211Z,823.53
2023-01-17T11:38:26.201Z,823.53
2023-01-17T11:39:26.168Z,823.56
2023-01-17T11:40:26.171Z,823.55
2023-01-17T11:41:26.149Z,823.53
2023-01-17T11:42:26.140Z,823.54
2023-01-17T11:43:26.137Z,823.53
2023-01-17T11:44:26.132Z,823.54
2023-01-17T11:45:26.130Z,823.48
2023-01-17T11:46:26.196Z,823.42
2023-01-17T11:47:26.083Z,823.43
2023-01-17T11:48:26.073Z,823.43
2023-01-17T11:49:26.063Z,823.42
2023-01-17T11:50:26.077Z,823.41
2023-01-17T11:51:26.040Z,823.41
2023-01-17T11:52:26.043Z,823.40
2023-01-17T11:53:26.031Z,823.36
2023-01-17T11:54:26.010Z,823.33
2023-01-17T11:55:26.018Z,823.32
2023-01-17T11:56:25.998Z,823.27
2023-01-17T11:57:25.973Z,823.22
2023-01-17T11:58:25.975Z,823.18
2023-01-17T11:59:25.956Z,823.20
2023-01-17T12:00:25.957Z,823.16
2023-01-17T12:01:25.966Z,823.10
2023-01-17T12:02:25.923Z,823.08
2023-01-17T12:03:25.949Z,823.01
2023-01-17T12:04:25.942Z,823.03
2023-01-17T12:05:25.908Z,823.05
2023-01-17T12:06:25.881Z,823.07
2023-01-17T12:07:25.867Z,823.08
2023-01-17T12:08:25.863Z,823.05
2023-01-17T12:09:25.854Z,823.08
2023-01-17T12:10:25.863Z,823.06
2023-01-17T12:11:25.831Z,823.09
2023-01-17T12:12:25.833Z,823.02
2023-01-17T12:13:25.806Z,823.00
2023-01-17T12:14:25.809Z,822.99
2023-01-17T12:15:25.780Z,822.98
2023-01-17T12:16:25.783Z,822.96
2023-01-17T12:17:25.836Z,822.97
2023-01-17T12:18:25.868Z,822.91
2023-01-17T12:19:25.740Z,822.89
2023-01-17T12:20:25.735Z,822.83
2023-01-17T12:21:25.723Z,822.82
2023-01-17T12:22:25.710Z,822.77
2023-01-17T12:23:25.702Z,822.75
2023-01-17T12:24:25.710Z,822.72
2023-01-17T12:25:25.787Z,822.73
2023-01-17T12:26:25.670Z,822.73
2023-01-17T12:27:25.708Z,822.70
2023-01-17T12:28:25.646Z,822.66
2023-01-17T12:29:25.678Z,822.60